Time;durP1;ratioP1;P1;durP2;ratioP2;P2;SDS_P1;SDS_P2;PMS_P1;PMS_P2;Temp;Humidity;BMP_temperature;BMP_pressure;BME280_temperature;BME280_humidity;BME280_pressure;Samples;Min_cycle;Max_cycle;Signal;HPM_P1;HPM_P2
2022/10/29 00:00:56;;;;;;;18.17;8.40;;;;;;;13.08;100.00;102007.69;6213532;23;20051;-95
2022/10/29 00:06:50;;;;;;;25.42;9.68;;;;;;;13.05;100.00;102029.69;6213198;22;20025;-96
2022/10/29 00:09:35;;;;;;;25.17;9.70;;;;;;;13.01;100.00;102028.56;6214983;23;20071;-95
2022/10/29 00:15:28;;;;;;;18.85;8.38;;;;;;;12.84;100.00;102018.59;6214929;23;20070;-94
2022/10/29 00:17:54;;;;;;;20.90;8.90;;;;;;;12.72;100.00;102002.53;6189391;23;20107;-95
2022/10/29 00:23:58;;;;;;;23.30;9.30;;;;;;;12.62;100.00;102020.38;6236249;22;20035;-95
2022/10/29 00:26:33;;;;;;;21.33;8.50;;;;;;;12.51;100.00;102014.81;6229539;22;20437;-96
2022/10/29 00:29:07;;;;;;;19.60;9.15;;;;;;;12.56;100.00;102032.91;6214764;23;20008;-96
2022/10/29 00:31:57;;;;;;;19.80;8.88;;;;;;;12.44;100.00;102018.72;6186276;23;20005;-95
2022/10/29 00:38:03;;;;;;;;;;;;;;;;;;;;;
2022/10/29 00:41:05;;;;;;;23.33;9.93;;;;;;;12.65;100.00;102030.66;6090723;23;20078;-96
2022/10/29 05:04:07;;;;;;;28.47;12.23;;;;;;;11.40;100.00;101839.50;6226301;22;20835;-92
2022/10/29 05:07:08;;;;;;;25.13;12.38;;;;;;;11.28;100.00;101820.75;6185188;23;20024;-93
2022/10/29 05:30:15;;;;;;;25.02;11.90;;;;;;;11.34;100.00;101827.84;6218659;23;20015;-95
2022/10/29 05:33:06;;;;;;;25.02;11.52;;;;;;;11.23;100.00;101812.59;6211703;23;20471;-96
2022/10/29 05:35:39;;;;;;;26.02;13.30;;;;;;;11.38;100.00;101820.16;6217057;23;20018;-96
2022/10/29 05:38:39;;;;;;;24.27;12.73;;;;;;;11.48;100.00;101824.91;6217822;23;20401;-95
2022/10/29 05:41:15;;;;;;;36.05;13.15;;;;;;;11.38;100.00;101795.16;6194255;23;20515;-95
2022/10/29 05:47:15;;;;;;;33.13;13.88;;;;;;;11.71;100.00;101820.44;6242512;22;20039;-96
2022/10/29 05:50:06;;;;;;;33.00;13.40;;;;;;;11.57;100.00;101790.44;6240259;22;20052;-95
2022/10/29 05:52:57;;;;;;;39.30;15.00;;;;;;;11.81;100.00;101812.59;6238910;22;20240;-94
2022/10/29 05:56:06;;;;;;;34.00;14.60;;;;;;;11.81;100.00;101810.72;6226832;22;20072;-94
2022/10/29 05:59:01;;;;;;;31.23;13.80;;;;;;;11.78;100.00;101802.34;6187040;23;20011;-93
2022/10/29 06:01:52;;;;;;;35.42;13.77;;;;;;;11.63;100.00;101801.00;6146366;23;20460;-94
2022/10/29 06:05:23;;;;;;;34.10;14.75;;;;;;;11.56;100.00;101778.06;6208801;23;20008;-95
2022/10/29 06:11:06;;;;;;;35.95;15.40;;;;;;;11.81;100.00;101789.22;6220484;23;20024;-91
2022/10/29 06:14:17;;;;;;;31.67;14.83;;;;;;;11.71;100.00;101764.91;6228086;23;20001;-92
2022/10/29 06:20:15;;;;;;;32.85;15.55;;;;;;;11.93;100.00;101807.16;6137151;23;20008;-90
2022/10/29 06:40:12;;;;;;;;;;;;;;;;;;;;;
2022/10/29 06:53:31;;;;;;;40.28;15.55;;;;;;;12.27;100.00;101817.94;6034729;23;20025;-94
2022/10/29 07:18:27;;;;;;;32.67;15.27;;;;;;;12.45;100.00;101797.25;6095787;23;20411;-92
2022/10/29 07:20:56;;;;;;;38.22;15.55;;;;;;;12.51;100.00;101799.75;6121323;23;20460;-92
2022/10/29 07:24:17;;;;;;;35.63;16.27;;;;;;;12.65;100.00;101818.22;6190946;23;20062;-92
2022/10/29 07:27:05;;;;;;;;;;;;;;;;;;;;;
2022/10/29 07:33:18;;;;;;;35.13;16.73;;;;;;;12.61;100.00;101771.38;6218870;23;20027;-93
2022/10/29 07:36:39;;;;;;;41.63;17.07;;;;;;;12.72;100.00;101784.72;6232418;23;20240;-90
2022/10/29 07:39:16;;;;;;;42.80;16.80;;;;;;;12.71;100.00;101788.47;6225708;23;20035;-91
2022/10/29 07:41:41;;;;;;;38.58;17.33;;;;;;;12.76;100.00;101774.28;6220988;23;20095;-92
2022/10/29 07:44:16;;;;;;;38.50;16.90;;;;;;;12.98;100.00;101803.06;6213440;23;20019;-90
2022/10/29 07:46:42;;;;;;;34.78;15.63;;;;;;;12.83;100.00;101780.28;6221063;23;20021;-92
2022/10/29 07:49:13;;;;;;;34.30;16.57;;;;;;;12.93;100.00;101786.88;6215340;23;20059;-91
2022/10/29 07:51:39;;;;;;;35.40;15.93;;;;;;;12.99;100.00;101777.78;6213349;23;20027;-91
2022/10/29 07:54:04;;;;;;;42.20;17.90;;;;;;;12.90;100.00;101772.03;6215135;23;20004;-91
2022/10/29 07:56:29;;;;;;;31.40;17.87;;;;;;;13.06;100.00;101777.59;6189004;23;20080;-91
2022/10/29 08:08:17;;;;;;;33.17;16.80;;;;;;;13.31;100.00;101780.56;6182039;23;20043;-92
2022/10/29 08:16:41;;;;;;;30.67;16.03;;;;;;;14.16;100.00;101799.94;6225463;22;20275;-96
2022/10/29 08:21:56;;;;;;;29.27;14.82;;;;;;;14.36;100.00;101773.13;6117728;23;20013;-95
2022/10/29 08:24:23;;;;;;;40.27;15.00;;;;;;;14.58;100.00;101798.31;6102035;23;20006;-86
2022/10/29 08:26:50;;;;;;;36.80;15.68;;;;;;;14.66;100.00;101792.47;6099901;23;20014;-90
2022/10/29 08:51:23;;;;;;;30.38;15.15;;;;;;;15.25;100.00;101799.47;6223859;22;20016;-91
2022/10/29 09:04:22;;;;;;;26.70;13.73;;;;;;;15.85;100.00;101790.09;5988632;24;20248;-92
2022/10/29 09:23:02;;;;;;;27.50;12.60;;;;;;;16.64;100.00;101762.69;6215087;23;20051;-89
2022/10/29 09:26:30;;;;;;;;;;;;;;;;;;;;;
2022/10/29 10:37:50;;;;;;;16.42;7.35;;;;;;;17.82;100.00;101709.69;6223094;23;20020;-91
2022/10/29 13:30:07;;;;;;;15.38;4.30;;;;;;;21.63;75.12;101583.56;6186914;22;20016;-88
2022/10/29 13:33:20;;;;;;;18.20;4.82;;;;;;;21.60;75.86;101584.19;6210121;22;20021;-94
2022/10/29 13:36:39;;;;;;;;;;;;;;;;;;;;;
2022/10/29 13:39:53;;;;;;;16.35;4.10;;;;;;;21.15;75.77;101551.56;6091857;23;20601;-91
2022/10/29 13:42:18;;;;;;;16.85;4.75;;;;;;;21.15;75.52;101557.00;6090126;23;20007;-92
2022/10/29 13:47:54;;;;;;;15.15;5.50;;;;;;;21.01;78.28;101544.25;6039394;23;20014;-95
2022/10/29 13:54:24;;;;;;;20.53;4.70;;;;;;;21.16;79.64;101575.75;6071206;23;20034;-92
2022/10/29 13:57:29;;;;;;;13.27;4.30;;;;;;;21.21;80.33;101574.81;6065552;23;20027;-90
2022/10/29 16:08:54;;;;;;;20.00;5.77;;;;;;;19.04;91.52;101482.38;6219015;22;19923;-91
2022/10/29 16:14:00;;;;;;;19.52;6.40;;;;;;;18.91;93.02;101461.38;6223414;22;20024;-92
2022/10/29 16:20:03;;;;;;;14.70;6.43;;;;;;;18.91;93.37;101464.91;6186297;23;20463;-94
2022/10/29 16:40:20;;;;;;;25.73;7.70;;;;;;;18.73;94.21;101441.34;6210840;22;20040;-88
2022/10/29 17:03:13;;;;;;;53.65;29.33;;;;;;;18.56;96.63;101448.13;6204976;23;20021;-95
2022/10/29 17:05:43;;;;;;;33.67;17.50;;;;;;;18.55;97.01;101440.28;6184574;23;20009;-89
2022/10/29 17:08:10;;;;;;;62.37;45.17;;;;;;;18.40;97.27;101431.28;6182637;23;20237;-89
2022/10/29 17:10:48;;;;;;;80.40;54.22;;;;;;;18.41;97.67;101432.13;6181851;23;20036;-89
2022/10/29 17:13:13;;;;;;;45.72;26.63;;;;;;;18.33;97.96;101430.88;6184325;23;20008;-88
2022/10/29 17:15:41;;;;;;;39.05;20.73;;;;;;;18.30;98.09;101434.97;6181413;23;20009;-88
2022/10/29 17:18:16;;;;;;;34.78;19.23;;;;;;;18.22;98.30;101419.38;6182720;23;20001;-89
2022/10/29 17:21:03;;;;;;;33.57;19.00;;;;;;;18.22;99.28;101435.66;6183116;23;20005;-90
2022/10/29 17:23:38;;;;;;;;;;;;;;;;;;;;;
2022/10/29 17:26:04;;;;;;;35.72;14.95;;;;;;;17.94;100.00;101407.59;6182096;23;20095;-89
2022/10/29 17:29:05;;;;;;;31.52;13.82;;;;;;;17.92;100.00;101401.63;6156649;23;20036;-89
2022/10/29 17:31:30;;;;;;;33.80;12.67;;;;;;;17.94;100.00;101418.44;6062202;23;20348;-89
2022/10/29 17:33:58;;;;;;;31.27;10.40;;;;;;;18.04;100.00;101429.13;6062338;23;20257;-88
2022/10/29 17:36:32;;;;;;;24.83;9.80;;;;;;;17.90;100.00;101404.63;6134752;23;20004;-89
2022/10/29 17:38:58;;;;;;;19.63;9.33;;;;;;;17.93;100.00;101416.81;6181545;23;20272;-88
2022/10/29 17:41:23;;;;;;;28.88;9.52;;;;;;;17.85;100.00;101415.56;6182946;23;20016;-89
2022/10/29 17:44:01;;;;;;;26.07;10.03;;;;;;;17.92;100.00;101469.41;6183395;23;19997;-91
2022/10/29 17:46:27;;;;;;;19.58;9.55;;;;;;;17.86;100.00;101476.81;6182588;23;20056;-89
2022/10/29 17:48:56;;;;;;;22.05;9.52;;;;;;;17.75;100.00;101469.91;6182291;23;20059;-89
2022/10/29 17:51:22;;;;;;;27.23;14.50;;;;;;;17.76;100.00;101482.34;6155303;23;20020;-89
2022/10/29 17:54:23;;;;;;;27.87;16.73;;;;;;;17.77;100.00;101489.38;6183300;23;20001;-90
2022/10/29 17:57:10;;;;;;;35.97;19.65;;;;;;;17.74;100.00;101492.66;6100820;23;20063;-90
2022/10/29 17:59:51;;;;;;;;;;;;;;;;;;;;;
2022/10/29 18:02:34;;;;;;;25.23;11.95;;;;;;;17.52;100.00;101486.69;6185903;23;20064;-92
2022/10/29 18:05:18;;;;;;;31.80;13.77;;;;;;;17.43;100.00;101487.63;6185598;23;20011;-90
2022/10/29 18:07:43;;;;;;;28.33;13.70;;;;;;;17.33;100.00;101492.06;6180956;23;20009;-90
2022/10/29 18:10:33;;;;;;;36.90;18.73;;;;;;;17.46;100.00;101498.69;6189985;23;20001;-91
2022/10/29 18:13:01;;;;;;;53.97;30.13;;;;;;;17.44;100.00;101498.16;6185335;23;20039;-91
2022/10/29 18:15:45;;;;;;;30.73;17.40;;;;;;;17.43;100.00;101502.00;6187877;23;20088;-91
2022/10/29 18:18:14;;;;;;;30.43;13.40;;;;;;;17.29;100.00;101488.31;6090162;23;20248;-89
2022/10/29 18:20:43;;;;;;;33.40;17.15;;;;;;;17.33;100.00;101502.91;6186549;23;20001;-92
2022/10/29 18:23:18;;;;;;;33.88;14.38;;;;;;;17.20;100.00;101481.91;6185881;23;20005;-89
2022/10/29 18:26:09;;;;;;;27.02;14.52;;;;;;;17.33;100.00;101505.63;6188501;23;19997;-90
2022/10/29 18:28:37;;;;;;;26.90;12.82;;;;;;;17.23;100.00;101497.59;6181347;23;20005;-91
2022/10/29 18:31:27;;;;;;;22.38;10.93;;;;;;;17.12;100.00;101482.53;6159368;23;20005;-91
2022/10/29 18:34:21;;;;;;;27.42;10.85;;;;;;;17.22;100.00;101510.34;6185913;23;20013;-91
2022/10/29 18:36:47;;;;;;;29.87;9.47;;;;;;;17.02;100.00;101480.75;6143143;23;20005;-91
2022/10/29 18:39:22;;;;;;;;;;;;;;;;;;;;;
2022/10/29 18:41:48;;;;;;;18.70;8.38;;;;;;;17.04;100.00;101511.84;6184841;23;20033;-90
2022/10/29 18:44:31;;;;;;;28.23;9.87;;;;;;;16.88;100.00;101496.81;6188329;23;20029;-90
2022/10/29 18:47:00;;;;;;;18.10;7.70;;;;;;;16.76;100.00;101491.75;6187771;23;20051;-89
2022/10/29 18:49:26;;;;;;;27.15;9.13;;;;;;;16.81;100.00;101508.75;6187201;23;20005;-89
2022/10/29 18:51:52;;;;;;;19.30;7.80;;;;;;;16.64;100.00;101484.00;6160829;23;20017;-90
2022/10/29 18:54:18;;;;;;;25.50;11.25;;;;;;;16.61;100.00;101482.69;6187821;23;20001;-90
2022/10/29 18:56:44;;;;;;;19.55;8.80;;;;;;;16.69;100.00;101499.41;6188498;23;20001;-90
2022/10/29 18:59:23;;;;;;;17.10;6.93;;;;;;;16.70;100.00;101492.91;6185497;23;20001;-89
2022/10/29 19:01:55;;;;;;;18.98;7.53;;;;;;;16.61;100.00;101493.50;6186325;23;20484;-89
2022/10/29 19:04:23;;;;;;;20.40;6.72;;;;;;;16.49;100.00;101480.31;6186408;23;20338;-89
2022/10/29 19:06:48;;;;;;;23.73;7.50;;;;;;;16.56;100.00;101492.75;6200987;23;20001;-87
2022/10/29 19:09:14;;;;;;;17.23;7.03;;;;;;;16.54;100.00;101493.00;6206643;23;20005;-90
2022/10/29 19:11:39;;;;;;;14.63;6.57;;;;;;;16.49;100.00;101474.91;6199039;23;20032;-89
2022/10/29 19:14:14;;;;;;;21.90;6.70;;;;;;;16.68;99.88;101505.91;6197766;23;20006;-89
2022/10/29 19:20:11;;;;;;;15.77;5.65;;;;;;;16.61;97.36;101468.34;6104074;23;20044;-90
2022/10/29 19:22:48;;;;;;;20.50;6.20;;;;;;;16.63;97.43;101475.09;6162221;23;20001;-89
2022/10/29 19:25:20;;;;;;;22.83;6.38;;;;;;;16.79;96.50;101493.91;6187538;23;20063;-89
2022/10/29 19:27:45;;;;;;;16.73;6.47;;;;;;;16.79;96.84;101500.13;6185822;23;20001;-90
2022/10/29 19:30:13;;;;;;;19.50;6.43;;;;;;;16.71;95.89;101484.50;6184134;23;20473;-90
2022/10/29 19:33:03;;;;;;;22.50;6.15;;;;;;;16.80;96.42;101500.94;6193049;23;20452;-88
2022/10/29 19:35:31;;;;;;;17.33;6.05;;;;;;;16.65;95.96;101488.31;6177258;23;20013;-90
2022/10/29 19:37:56;;;;;;;13.85;5.60;;;;;;;16.70;95.98;101501.81;6187166;23;20001;-90
2022/10/29 19:41:01;;;;;;;;;;;;;;;;;;;;;
2022/10/29 19:43:33;;;;;;;15.18;6.03;;;;;;;16.54;96.09;101503.03;6183619;23;20228;-89
2022/10/29 19:46:00;;;;;;;16.30;6.05;;;;;;;16.59;95.11;101494.88;6184582;23;20430;-90
2022/10/29 19:48:25;;;;;;;11.43;6.03;;;;;;;16.41;96.38;101486.34;6186075;23;19997;-90
2022/10/29 19:51:39;;;;;;;28.30;6.40;;;;;;;16.33;96.60;101482.34;6156548;23;20307;-90
2022/10/29 19:54:06;;;;;;;15.10;5.82;;;;;;;16.35;96.36;101509.09;6178953;23;20194;-90
2022/10/29 19:56:37;;;;;;;21.97;6.37;;;;;;;16.22;96.64;101493.50;6183920;23;20115;-91
2022/10/29 22:50:01;;;;;;;20.52;6.38;;;;;;;14.23;100.00;101568.75;6232894;22;20039;-91
2022/10/29 22:56:15;;;;;;;16.50;6.67;;;;;;;14.05;100.00;101551.97;6263310;23;20277;-90
2022/10/29 22:58:43;;;;;;;21.88;6.28;;;;;;;14.11;100.00;101565.44;6266930;23;20092;-89
2022/10/29 23:01:55;;;;;;;16.23;6.50;;;;;;;14.05;100.00;101561.91;6246141;22;20010;-91
2022/10/29 23:55:21;;;;;;;17.42;6.45;;;;;;;13.33;100.00;101573.88;6241708;22;20026;-91
2022/10/29 23:58:04;;;;;;;16.73;7.03;;;;;;;13.22;100.00;101572.19;6253649;23;20082;-92
